KHST/HST METAR and TAF weather

Enter ICAO airport designator
Station Type Date Time Source
KHST METAR 2022/06/28 14:56 UTC NOAA

KHST 281456Z AUTO 09010KT 10SM FEW030 30/23 A3007 RMK AO2 DZB18E20 SLP186 P0000 60010 T03000229 52014


Station Type Date Time Source
KHST Decoded METAR 2022/06/28 14:56 UTC NOAA

Homestead Air Force Base, FL, United States (KHST) 25-29N 080-23W
Jun 28, 2022 - 10:56 AM EDT / 2022.06.28 1456 UTC
Wind: from the E (090 degrees) at 12 MPH (10 KT):0
Visibility: 10 mile(s):0
Sky conditions: mostly clear
Precipitation last hour: A trace
Temperature: 86.0 F (30.0 C)
Heat index: 93.0 F (33.9 C):1
Dew Point: 73.2 F (22.9 C)
Relative Humidity: 65%
Pressure (altimeter): 30.07 in. Hg (1018 hPa)
Pressure tendency: 0.04 inches (1.4 hPa) higher than three hours ago
ob: KHST 281456Z AUTO 09010KT 10SM FEW030 30/23 A3007 RMK AO2 DZB18E20 SLP186 P0000 60010 T03000229 52014
cycle: 15

Station Type Date Time Source
KHST TAF 2022/06/28 11:59 UTC NOAA

TAF KHST 281100Z 2811/2917 VRB06KT 9999 VCSH SCT025 SCT050 QNH3001INS
BECMG 2815/2816 11009KT 9999 VCTS SCT025CB SCT050 QNH3002INS
TEMPO 2818/2822 VRB12G18KT 4800 -TSRA BKN020CB BKN040
BECMG 2823/2824 VRB06KT 9999 NSW SCT025 SCT050 QNH3004INS TX32/2819Z TN25/2811Z

Example: see airport list